createdAt,value
2022-09-16T00:04:14.886Z,100097.84
2022-09-16T00:09:17.692Z,100102.63
2022-09-16T00:14:20.472Z,100097.13
2022-09-16T00:19:24.702Z,100100.63
2022-09-16T00:24:28.320Z,100099.19
2022-09-16T00:29:31.256Z,100098.31
2022-09-16T00:34:35.439Z,100104.53
2022-09-16T00:39:38.561Z,100112.72
2022-09-16T00:44:57.569Z,100127.25
2022-09-16T00:50:08.121Z,100102.00
2022-09-16T00:55:15.377Z,100106.91
2022-09-16T01:00:18.276Z,100114.59
2022-09-16T01:05:25.855Z,100108.00
2022-09-16T01:10:28.624Z,100115.50
2022-09-16T01:15:42.220Z,100125.47
2022-09-16T01:21:03.287Z,100120.94
2022-09-16T01:26:21.853Z,100116.50
2022-09-16T01:31:35.703Z,100115.94
2022-09-16T01:36:46.458Z,100109.00
2022-09-16T01:42:02.392Z,100110.44
2022-09-16T01:47:13.590Z,100114.44
2022-09-16T01:52:24.743Z,100094.81
2022-09-16T01:57:35.805Z,100101.84
2022-09-16T02:02:45.536Z,100092.56
2022-09-16T02:07:53.404Z,100092.41
2022-09-16T02:13:01.179Z,100091.41
2022-09-16T02:18:10.436Z,100101.78
2022-09-16T02:23:16.808Z,100089.75
2022-09-16T02:28:27.420Z,100090.00
2022-09-16T02:33:35.336Z,100080.72
2022-09-16T02:38:42.648Z,100085.66
2022-09-16T02:43:46.526Z,100106.34
2022-09-16T02:48:58.566Z,100081.75
2022-09-16T02:54:10.373Z,100083.94
2022-09-16T02:59:13.986Z,100084.56
2022-09-16T03:04:21.345Z,100081.34
2022-09-16T03:09:25.001Z,100086.28
2022-09-16T03:14:53.061Z,100069.38
2022-09-16T03:20:05.861Z,100065.75
2022-09-16T03:25:15.190Z,100072.91
2022-09-16T03:30:18.204Z,100063.00
2022-09-16T03:35:28.415Z,100062.72
2022-09-16T03:40:34.241Z,100056.22
2022-09-16T03:45:37.193Z,100044.84
2022-09-16T03:50:41.512Z,100050.78
2022-09-16T03:55:44.274Z,100049.25
2022-09-16T04:00:52.133Z,100066.28
2022-09-16T04:05:57.319Z,100054.66
2022-09-16T04:11:02.110Z,100048.06
2022-09-16T04:16:05.534Z,100052.53
2022-09-16T04:21:10.886Z,100048.09
2022-09-16T04:26:13.829Z,100044.06
2022-09-16T04:31:17.116Z,100038.91
2022-09-16T04:36:22.169Z,100031.41
2022-09-16T04:41:27.493Z,100026.97
2022-09-16T04:46:32.460Z,100025.66
2022-09-16T04:51:36.654Z,100024.34
2022-09-16T04:56:39.888Z,100026.88
2022-09-16T05:01:43.843Z,100034.56
2022-09-16T05:06:48.126Z,100041.59
2022-09-16T05:11:50.886Z,100046.16
2022-09-16T05:16:53.786Z,100042.50
2022-09-16T05:22:00.679Z,100035.44
2022-09-16T05:27:03.777Z,100016.19
2022-09-16T05:32:06.638Z,100022.50
2022-09-16T05:37:10.790Z,100016.94
2022-09-16T05:42:13.577Z,100016.75
2022-09-16T05:47:16.311Z,100027.28
2022-09-16T05:52:20.426Z,100020.06
2022-09-16T05:57:23.856Z,100019.53
2022-09-16T06:02:26.908Z,100016.03
2022-09-16T06:07:31.044Z,100012.63
2022-09-16T06:12:33.761Z,100015.09
2022-09-16T06:17:36.494Z,100022.97
2022-09-16T06:22:40.646Z,100010.97
2022-09-16T06:27:43.382Z,100014.97
2022-09-16T06:32:46.199Z,100016.44
2022-09-16T06:37:50.375Z,100005.47
2022-09-16T06:42:57.187Z,100004.50
2022-09-16T06:48:03.272Z,99996.22
2022-09-16T06:53:07.545Z,99988.94
2022-09-16T06:58:10.343Z,99990.63
2022-09-16T07:03:13.027Z,99982.97
2022-09-16T07:08:17.195Z,99971.84
2022-09-16T07:13:20.158Z,99974.63
2022-09-16T07:18:22.970Z,99976.94
2022-09-16T07:23:27.076Z,99979.84
2022-09-16T07:28:29.917Z,99976.94
2022-09-16T07:33:37.088Z,99983.66
2022-09-16T07:38:41.396Z,99992.22
2022-09-16T07:43:45.029Z,99982.63
2022-09-16T07:48:49.768Z,100003.13
2022-09-16T07:53:58.507Z,99993.38
2022-09-16T07:59:02.711Z,100006.78
2022-09-16T08:04:05.808Z,99997.63
2022-09-16T08:09:27.298Z,99997.88
2022-09-16T08:14:33.161Z,99999.69
2022-09-16T08:19:35.991Z,100003.56
2022-09-16T08:24:40.082Z,100000.97
2022-09-16T08:29:42.863Z,100002.94
2022-09-16T08:34:45.694Z,99994.41
2022-09-16T08:39:51.825Z,100001.41
2022-09-16T08:45:03.794Z,99994.22
2022-09-16T08:50:14.493Z,100003.94
2022-09-16T08:55:25.167Z,99997.81
2022-09-16T09:00:28.052Z,100000.84
2022-09-16T09:05:42.813Z,100002.19
2022-09-16T09:10:50.917Z,100005.59
2022-09-16T09:16:00.315Z,99993.16
2022-09-16T09:21:16.100Z,100000.22
2022-09-16T09:26:23.146Z,100001.47
2022-09-16T09:31:39.334Z,100014.88
2022-09-16T09:36:52.572Z,99989.34
2022-09-16T09:42:03.742Z,99992.97
2022-09-16T09:47:13.136Z,99974.31
2022-09-16T09:52:22.185Z,99969.38
2022-09-16T09:57:34.676Z,99967.78
2022-09-16T10:02:44.968Z,99952.69
2022-09-16T10:07:52.190Z,99962.50
2022-09-16T10:12:56.348Z,99962.25
2022-09-16T10:18:02.983Z,99962.47
2022-09-16T10:23:10.919Z,99961.41
2022-09-16T10:28:23.680Z,99951.56
2022-09-16T10:33:30.672Z,99955.03
2022-09-16T10:38:38.455Z,99943.03
2022-09-16T10:43:50.384Z,99931.88
2022-09-16T10:48:58.068Z,99928.00
2022-09-16T10:54:02.777Z,99920.63
2022-09-16T10:59:11.396Z,99908.25
2022-09-16T11:05:02.716Z,99915.28
2022-09-16T11:10:13.966Z,99913.69
2022-09-16T11:15:30.185Z,99944.38
2022-09-16T11:21:04.688Z,99938.72
2022-09-16T11:26:15.060Z,99941.09
2022-09-16T11:31:31.904Z,99925.22
2022-09-16T11:36:46.193Z,99923.00
2022-09-16T11:41:58.436Z,99921.56
2022-09-16T11:47:17.101Z,99901.31
2022-09-16T11:52:35.122Z,99894.44
2022-09-16T11:57:43.135Z,99885.97
2022-09-16T12:02:54.439Z,99875.41
2022-09-16T12:08:04.384Z,99863.03
2022-09-16T12:13:10.939Z,99861.81
2022-09-16T12:18:20.234Z,99856.81
2022-09-16T12:23:27.732Z,99883.34
2022-09-16T12:28:37.401Z,99881.78
2022-09-16T12:33:46.167Z,99868.59
2022-09-16T12:38:49.058Z,99863.69
2022-09-16T12:44:33.642Z,99844.19
2022-09-16T12:50:02.369Z,99848.97
2022-09-16T12:55:34.287Z,99878.25
2022-09-16T13:00:44.506Z,99866.22
2022-09-16T13:05:51.926Z,99852.53
2022-09-16T13:16:32.811Z,99861.16
2022-09-16T13:21:42.076Z,99863.63
2022-09-16T13:26:46.893Z,99853.72
2022-09-16T13:31:50.264Z,99854.06
2022-09-16T13:36:54.789Z,99851.56
2022-09-16T13:41:57.660Z,99838.88
2022-09-16T13:47:34.242Z,99851.44
2022-09-16T13:52:38.527Z,99855.63
2022-09-16T13:57:58.421Z,99833.56
2022-09-16T14:03:28.028Z,99831.25
2022-09-16T14:08:40.508Z,99829.88
2022-09-16T14:13:49.273Z,99795.16
2022-09-16T14:18:57.360Z,99762.16
2022-09-16T14:24:17.078Z,99770.56
2022-09-16T14:29:20.388Z,99747.50
2022-09-16T14:34:28.446Z,99734.09
2022-09-16T14:39:34.389Z,99718.22
2022-09-16T14:44:40.839Z,99712.22
2022-09-16T14:49:46.816Z,99714.09
2022-09-16T14:54:51.927Z,99680.59
2022-09-16T14:59:57.791Z,99685.63
2022-09-16T15:05:11.272Z,99689.78
2022-09-16T15:10:25.213Z,99682.66
2022-09-16T15:15:30.709Z,99675.00
2022-09-16T15:20:37.656Z,99672.22
2022-09-16T15:25:41.844Z,99683.34
2022-09-16T15:30:48.565Z,99656.38
2022-09-16T15:35:52.537Z,99688.72
2022-09-16T15:41:04.588Z,99678.50
2022-09-16T15:46:16.182Z,99672.09
2022-09-16T15:51:29.358Z,99648.59
2022-09-16T15:56:42.647Z,99652.00
2022-09-16T16:01:53.482Z,99666.06
2022-09-16T16:06:58.478Z,99655.41
2022-09-16T16:12:05.094Z,99669.81
2022-09-16T16:17:14.420Z,99652.81
2022-09-16T16:22:17.998Z,99629.75
2022-09-16T16:27:22.416Z,99634.22
2022-09-16T16:32:25.214Z,99667.78
2022-09-16T16:37:46.841Z,99652.81
2022-09-16T16:42:51.716Z,99670.09
2022-09-16T16:47:54.439Z,99679.50
2022-09-16T16:52:57.203Z,99673.94
2022-09-16T16:58:01.415Z,99688.38
2022-09-16T17:03:04.844Z,99694.63
2022-09-16T17:08:08.517Z,99711.97
2022-09-16T17:13:12.623Z,99725.00
2022-09-16T17:18:15.488Z,99727.53
2022-09-16T17:23:18.747Z,99733.69
2022-09-16T17:28:23.132Z,99743.88
2022-09-16T17:33:26.256Z,99756.94
2022-09-16T17:38:29.089Z,99754.06
2022-09-16T17:43:33.621Z,99765.28
2022-09-16T17:48:37.967Z,99767.59
2022-09-16T17:53:41.135Z,99770.88
2022-09-16T17:58:50.119Z,99781.94
2022-09-16T18:03:56.811Z,99788.34
2022-09-16T18:09:01.325Z,99796.25
2022-09-16T18:14:07.893Z,99801.91
2022-09-16T18:19:10.809Z,99798.59
2022-09-16T18:24:14.480Z,99795.22
2022-09-16T18:29:18.698Z,99804.19
2022-09-16T18:34:21.495Z,99803.31
2022-09-16T18:39:24.355Z,99814.22
2022-09-16T18:44:28.915Z,99824.59
2022-09-16T18:49:31.795Z,99831.53
2022-09-16T18:54:34.563Z,99842.72
2022-09-16T18:59:38.671Z,99844.50
2022-09-16T19:04:43.697Z,99852.16
2022-09-16T19:09:48.340Z,99854.25
2022-09-16T19:14:55.523Z,99865.19
2022-09-16T19:19:58.356Z,99867.38
2022-09-16T19:25:01.812Z,99881.66
2022-09-16T19:30:06.954Z,99884.47
2022-09-16T19:35:10.389Z,99891.59
2022-09-16T19:40:14.101Z,99892.75
2022-09-16T19:45:18.698Z,99911.09
2022-09-16T19:50:21.706Z,99910.75
2022-09-16T19:55:24.585Z,99906.84
2022-09-16T20:00:46.594Z,99908.69
2022-09-16T20:06:01.449Z,99918.97
2022-09-16T20:11:06.277Z,99911.28
2022-09-16T20:16:11.127Z,99919.63
2022-09-16T20:21:24.572Z,99914.59
2022-09-16T20:26:28.115Z,99927.06
2022-09-16T20:31:34.168Z,99918.81
2022-09-16T20:36:38.971Z,99925.78
2022-09-16T20:41:42.958Z,99925.63
2022-09-16T20:46:48.867Z,99931.94
2022-09-16T20:51:52.358Z,99932.78
2022-09-16T20:56:55.111Z,99938.59
2022-09-16T21:02:03.961Z,99949.13
2022-09-16T21:07:06.708Z,99953.00
2022-09-16T21:12:09.477Z,99964.66
2022-09-16T21:17:13.557Z,99964.56
2022-09-16T21:22:16.320Z,99964.03
2022-09-16T21:27:19.039Z,99971.78
2022-09-16T21:32:23.565Z,99973.81
2022-09-16T21:37:26.747Z,99979.13
2022-09-16T21:42:29.519Z,99991.44
2022-09-16T21:47:33.682Z,99987.72
2022-09-16T21:52:36.408Z,99995.25
2022-09-16T21:57:39.212Z,99994.53
2022-09-16T22:02:43.361Z,100002.47
2022-09-16T22:07:46.332Z,100004.81
2022-09-16T22:12:49.077Z,99999.97
2022-09-16T22:17:54.101Z,100004.06
2022-09-16T22:22:57.304Z,100007.78
2022-09-16T22:28:00.272Z,100012.91
2022-09-16T22:33:04.561Z,100005.13
2022-09-16T22:38:07.364Z,100010.53
2022-09-16T22:43:10.092Z,100008.19
2022-09-16T22:48:14.193Z,100020.19
2022-09-16T22:53:16.921Z,100019.00
2022-09-16T22:58:19.695Z,100016.34
2022-09-16T23:03:23.861Z,100023.78
2022-09-16T23:08:27.213Z,100022.31
2022-09-16T23:13:31.121Z,100020.06
2022-09-16T23:18:36.473Z,100021.78
2022-09-16T23:23:41.066Z,100017.72
2022-09-16T23:28:43.841Z,100032.97
2022-09-16T23:33:48.118Z,100027.66
2022-09-16T23:38:51.120Z,100023.41
2022-09-16T23:43:54.736Z,100026.59
2022-09-16T23:48:59.586Z,100025.56
2022-09-16T23:54:02.454Z,100020.06
2022-09-16T23:59:05.221Z,100016.75
